Time;durP1;ratioP1;P1;durP2;ratioP2;P2;SDS_P1;SDS_P2;PMS_P1;PMS_P2;Temp;Humidity;BMP_temperature;BMP_pressure;BME280_temperature;BME280_humidity;BME280_pressure;Samples;Min_cycle;Max_cycle;Signal;HPM_P1;HPM_P2
2022/11/26 00:00:25;;;;;;;31.63;18.17;;;7.20;99.90;;;;;;4962745;28;20581;-84
2022/11/26 00:02:53;;;;;;;39.33;19.95;;;7.50;99.90;;;;;;4962490;28;20209;-82
2022/11/26 00:05:21;;;;;;;33.55;19.85;;;7.40;99.90;;;;;;4960943;28;20234;-84
2022/11/26 00:07:54;;;;;;;33.15;18.83;;;7.40;99.90;;;;;;4963130;29;20576;-85
2022/11/26 00:10:23;;;;;;;38.50;20.50;;;7.30;99.90;;;;;;4962416;29;20217;-84
2022/11/26 00:12:51;;;;;;;33.78;18.52;;;7.40;99.90;;;;;;4964174;28;20226;-84
2022/11/26 00:15:21;;;;;;;37.95;19.83;;;7.40;99.90;;;;;;4970404;28;20234;-83
2022/11/26 00:17:49;;;;;;;36.92;20.35;;;7.40;99.90;;;;;;4974280;28;20199;-83
2022/11/26 00:20:16;;;;;;;30.25;19.27;;;7.70;99.90;;;;;;4972350;28;20350;-83
2022/11/26 00:22:46;;;;;;;34.70;19.55;;;7.40;99.90;;;;;;4971132;28;20210;-84
2022/11/26 00:25:17;;;;;;;37.67;19.58;;;7.50;99.90;;;;;;4962987;28;20290;-84
2022/11/26 00:27:44;;;;;;;42.95;19.77;;;7.70;99.90;;;;;;4960624;28;20636;-84
2022/11/26 00:30:20;;;;;;;40.45;19.75;;;7.40;99.90;;;;;;4960706;29;20230;-84
2022/11/26 00:32:47;;;;;;;34.92;20.73;;;7.70;99.90;;;;;;4961059;29;20207;-85
2022/11/26 00:35:15;;;;;;;36.97;19.15;;;7.40;99.90;;;;;;4965635;28;20283;-83
2022/11/26 00:37:44;;;;;;;38.92;20.13;;;7.20;99.90;;;;;;4971219;28;20225;-85
2022/11/26 00:40:22;;;;;;;34.42;19.67;;;7.50;99.90;;;;;;4968789;29;20772;-83
2022/11/26 00:42:51;;;;;;;42.97;19.70;;;7.40;99.90;;;;;;4971973;28;20290;-83
2022/11/26 00:45:20;;;;;;;34.50;19.98;;;7.40;99.90;;;;;;4968249;28;20252;-84
2022/11/26 00:47:47;;;;;;;43.85;19.67;;;7.30;99.90;;;;;;4968499;29;20211;-84
2022/11/26 00:50:16;;;;;;;32.00;17.40;;;7.60;99.90;;;;;;4968262;29;20211;-83
2022/11/26 00:52:44;;;;;;;49.10;21.15;;;7.40;99.90;;;;;;4967010;28;20222;-83
2022/11/26 00:55:23;;;;;;;41.10;18.92;;;7.50;99.90;;;;;;4964754;28;20257;-84
2022/11/26 00:57:50;;;;;;;38.08;20.02;;;7.40;99.90;;;;;;4962905;28;20234;-85
2022/11/26 01:00:21;;;;;;;32.30;18.95;;;7.50;99.90;;;;;;4963597;29;20306;-84
2022/11/26 01:02:48;;;;;;;42.13;20.63;;;7.50;99.90;;;;;;4963285;28;20215;-84
2022/11/26 01:05:15;;;;;;;39.25;20.48;;;7.50;99.90;;;;;;4961283;28;20627;-84
2022/11/26 01:07:43;;;;;;;30.42;18.95;;;8.30;99.90;;;;;;4960474;29;20218;-84
2022/11/26 01:10:17;;;;;;;36.30;20.10;;;7.30;99.90;;;;;;4960623;28;20262;-84
2022/11/26 01:12:46;;;;;;;38.83;19.70;;;7.70;99.90;;;;;;4961631;28;20194;-82
2022/11/26 01:15:13;;;;;;;33.33;18.35;;;7.40;99.90;;;;;;4971070;28;20234;-81
2022/11/26 01:17:40;;;;;;;50.60;21.80;;;7.40;99.90;;;;;;4966688;28;20207;-81
2022/11/26 01:20:24;;;;;;;35.17;20.33;;;7.00;99.90;;;;;;4970884;29;20288;-81
2022/11/26 01:22:52;;;;;;;37.40;19.33;;;7.30;99.90;;;;;;4962696;29;20191;-83
2022/11/26 01:25:19;;;;;;;36.75;21.05;;;7.40;99.90;;;;;;4961617;28;20250;-83
2022/11/26 01:27:48;;;;;;;39.17;18.55;;;7.40;99.90;;;;;;4960557;28;20242;-83
2022/11/26 01:30:20;;;;;;;35.47;20.27;;;7.40;99.90;;;;;;4959943;29;20211;-84
2022/11/26 01:32:47;;;;;;;36.20;17.77;;;7.40;99.90;;;;;;4958688;29;20214;-83
2022/11/26 01:35:14;;;;;;;33.70;18.45;;;7.40;99.90;;;;;;4958806;28;20240;-84
2022/11/26 01:37:42;;;;;;;35.75;18.90;;;7.30;99.90;;;;;;4958727;29;20209;-84
2022/11/26 01:40:42;;;;;;;34.55;20.38;;;7.30;99.90;;;;;;4958982;29;20213;-84
2022/11/26 01:43:22;;;;;;;30.27;18.50;;;7.30;99.90;;;;;;4958455;28;20279;-84
2022/11/26 01:45:49;;;;;;;40.95;20.08;;;7.40;99.90;;;;;;4958407;28;20260;-83
2022/11/26 01:48:28;;;;;;;61.55;22.35;;;7.20;99.90;;;;;;4958521;29;20280;-84
2022/11/26 01:50:58;;;;;;;40.75;21.75;;;7.40;99.90;;;;;;4958292;29;20294;-83
2022/11/26 01:53:40;;;;;;;44.03;23.13;;;7.50;99.90;;;;;;4959265;29;20553;-84
2022/11/26 01:56:36;;;;;;;37.78;19.05;;;7.50;99.90;;;;;;4966239;28;20254;-84
2022/11/26 01:59:11;;;;;;;43.83;19.63;;;7.50;99.90;;;;;;4968167;29;20218;-85
2022/11/26 02:01:39;;;;;;;46.05;21.05;;;7.40;99.90;;;;;;4969118;28;20194;-82
2022/11/26 02:04:15;;;;;;;38.85;19.88;;;7.70;99.90;;;;;;4967014;28;20226;-83
2022/11/26 02:06:44;;;;;;;45.20;18.75;;;7.50;99.90;;;;;;4963522;29;20279;-84
2022/11/26 02:09:12;;;;;;;40.13;19.27;;;7.40;99.90;;;;;;4960698;29;20658;-84
2022/11/26 02:11:42;;;;;;;44.42;20.23;;;7.40;99.90;;;;;;4964229;28;20270;-85
2022/11/26 02:17:17;;;;;;;45.55;22.08;;;7.50;99.90;;;;;;4956712;28;20672;-83
2022/11/26 02:20:20;;;;;;;44.83;20.95;;;7.60;99.90;;;;;;4959052;28;20637;-83
2022/11/26 02:23:40;;;;;;;41.72;21.75;;;7.60;99.90;;;;;;4959426;28;20289;-85
2022/11/26 02:26:48;;;;;;;49.50;24.30;;;7.50;99.90;;;;;;4941016;29;20227;-84
2022/11/26 02:29:28;;;;;;;51.65;21.23;;;7.50;99.90;;;;;;4949843;28;20214;-84
2022/11/26 03:02:39;;;;;;;50.22;21.35;;;7.60;99.90;;;;;;4848334;29;20227;-86
2022/11/26 03:22:20;;;;;;;49.88;23.80;;;;;;;;;;4842991;29;20713;-86
2022/11/26 03:25:02;;;;;;;55.60;24.65;;;;;;;;;;4962504;28;20244;-86
2022/11/26 03:27:45;;;;;;;62.70;27.48;;;;;;;;;;4961865;29;20593;-86
2022/11/26 03:30:15;;;;;;;60.70;24.02;;;;;;;;;;4964476;29;20210;-86
2022/11/26 03:32:52;;;;;;;51.88;24.50;;;;;;;;;;4964795;28;20237;-86
2022/11/26 03:35:32;;;;;;;55.22;24.70;;;;;;;;;;4961807;29;20234;-86
2022/11/26 03:38:00;;;;;;;52.13;23.27;;;;;;;;;;4962621;28;20215;-86
2022/11/26 03:40:38;;;;;;;73.97;27.53;;;;;;;;;;4965170;28;20577;-86
2022/11/26 03:43:16;;;;;;;61.50;25.60;;;;;;;;;;4965922;28;20462;-86
2022/11/26 03:48:30;;;;;;;55.28;25.50;;;;;;;;;;4964115;29;20222;-86
2022/11/26 03:51:18;;;;;;;67.93;25.42;;;;;;;;;;4965325;28;20308;-86
2022/11/26 03:53:49;;;;;;;58.85;27.13;;;;;;;;;;4965937;29;20214;-86
2022/11/26 03:56:21;;;;;;;61.88;25.00;;;;;;;;;;4966267;29;20209;-85
2022/11/26 03:58:50;;;;;;;54.72;26.13;;;;;;;;;;4965963;28;20207;-85
2022/11/26 04:01:23;;;;;;;50.67;23.50;;;;;;;;;;4961229;28;20222;-85
2022/11/26 04:03:50;;;;;;;48.03;24.23;;;;;;;;;;4959782;29;20213;-85
2022/11/26 04:06:17;;;;;;;56.75;27.88;;;;;;;;;;4965953;29;20213;-85
2022/11/26 04:08:44;;;;;;;66.65;27.75;;;8.00;99.90;;;;;;4965744;29;20294;-85
2022/11/26 04:11:11;;;;;;;63.55;26.48;;;;;;;;;;4962625;28;20226;-85
2022/11/26 04:13:40;;;;;;;63.45;30.23;;;;;;;;;;4967836;28;20278;-84
2022/11/26 04:16:07;;;;;;;73.30;25.50;;;;;;;;;;4976746;29;20257;-85
2022/11/26 04:18:34;;;;;;;65.90;26.20;;;;;;;;;;4976337;28;20194;-84
2022/11/26 04:21:01;;;;;;;63.20;27.52;;;;;;;;;;4976281;28;20214;-83
2022/11/26 04:23:29;;;;;;;59.78;22.75;;;;;;;;;;4977235;29;20266;-83
2022/11/26 04:25:56;;;;;;;61.70;24.52;;;;;;;;;;4977564;28;20225;-83
2022/11/26 04:28:26;;;;;;;56.00;26.80;;;;;;;;;;4970814;28;20210;-84
2022/11/26 04:30:55;;;;;;;52.38;25.15;;;;;;;;;;4965489;28;20474;-84
2022/11/26 04:33:22;;;;;;;53.80;25.10;;;;;;;;;;4963584;28;20242;-84
2022/11/26 04:35:53;;;;;;;70.20;25.80;;;;;;;;;;4963822;28;20486;-84
2022/11/26 04:38:20;;;;;;;58.00;25.85;;;;;;;;;;4968640;29;20434;-85
2022/11/26 04:40:51;;;;;;;54.15;25.85;;;;;;;;;;4976885;28;20211;-83
2022/11/26 04:43:21;;;;;;;49.70;26.77;;;;;;;;;;4975556;28;20195;-84
2022/11/26 04:45:50;;;;;;;65.43;27.35;;;;;;;;;;4966430;29;20451;-84
2022/11/26 04:48:19;;;;;;;52.57;21.70;;;;;;;;;;4961846;29;20210;-84
2022/11/26 04:50:46;;;;;;;59.33;25.57;;;;;;;;;;4961738;28;20450;-84
2022/11/26 04:53:13;;;;;;;65.97;26.50;;;;;;;;;;4960794;29;20446;-84
2022/11/26 04:55:41;;;;;;;58.77;24.87;;;;;;;;;;4962146;29;20486;-84
2022/11/26 04:58:12;;;;;;;59.08;25.67;;;;;;;;;;4961053;29;20963;-85
2022/11/26 05:00:39;;;;;;;50.87;23.87;;;;;;;;;;4961602;28;20229;-84
2022/11/26 05:03:06;;;;;;;54.67;24.67;;;;;;;;;;4967643;28;20454;-85
2022/11/26 05:05:36;;;;;;;43.45;22.73;;;;;;;;;;4976798;28;20469;-84
2022/11/26 05:10:58;;;;;;;58.05;26.25;;;;;;;;;;4999776;28;20235;-84
2022/11/26 05:13:36;;;;;;;52.83;24.42;;;;;;;;;;4972990;29;20218;-84
2022/11/26 05:16:08;;;;;;;46.30;23.30;;;;;;;;;;4968187;29;20741;-85
2022/11/26 05:18:35;;;;;;;57.13;26.40;;;;;;;;;;4965229;29;20462;-85
2022/11/26 05:21:07;;;;;;;58.10;24.13;;;7.90;99.90;;;;;;4957878;28;20470;-85
2022/11/26 05:23:39;;;;;;;47.83;22.75;;;;;;;;;;4960300;28;20308;-84
2022/11/26 05:26:17;;;;;;;44.40;22.83;;;;;;;;;;4960305;29;20203;-84
2022/11/26 05:28:44;;;;;;;37.17;21.73;;;;;;;;;;4977005;29;20225;-84
2022/11/26 05:31:14;;;;;;;41.28;21.40;;;;;;;;;;4976550;28;20214;-84
2022/11/26 05:33:41;;;;;;;40.85;21.27;;;;;;;;;;4975207;29;20210;-85
2022/11/26 05:36:10;;;;;;;46.38;20.40;;;;;;;;;;4963544;28;20233;-84
2022/11/26 05:38:37;;;;;;;42.92;19.48;;;;;;;;;;4963263;28;20221;-85
2022/11/26 05:41:09;;;;;;;35.67;19.52;;;;;;;;;;4963057;28;20227;-85
2022/11/26 05:43:39;;;;;;;34.70;20.57;;;;;;;;;;4963827;29;20215;-86
2022/11/26 05:46:07;;;;;;;38.63;19.60;;;;;;;;;;4963097;28;20484;-84
2022/11/26 05:48:34;;;;;;;39.90;19.80;;;;;;;;;;4963019;29;20455;-85
2022/11/26 05:51:02;;;;;;;35.42;19.15;;;8.00;99.90;;;;;;4962908;28;20226;-85
2022/11/26 05:53:31;;;;;;;37.40;20.20;;;;;;;;;;4962931;29;20268;-85
2022/11/26 05:55:58;;;;;;;32.40;18.50;;;;;;;;;;4964129;29;20222;-85
2022/11/26 05:58:26;;;;;;;41.35;19.98;;;;;;;;;;4963240;29;20816;-86
2022/11/26 06:00:56;;;;;;;33.63;18.05;;;;;;;;;;4961100;28;20226;-85
2022/11/26 06:03:24;;;;;;;46.28;20.23;;;;;;;;;;4960907;28;20207;-85
2022/11/26 06:05:51;;;;;;;43.13;20.75;;;;;;;;;;4959938;28;20203;-85
2022/11/26 06:08:20;;;;;;;43.15;19.95;;;;;;;;;;4961237;28;20249;-85
2022/11/26 06:10:52;;;;;;;30.45;18.52;;;;;;;;;;4960038;28;20238;-86
2022/11/26 06:13:28;;;;;;;41.00;20.40;;;;;;;;;;4960741;28;20716;-85
2022/11/26 06:15:55;;;;;;;40.72;18.83;;;;;;;;;;4963731;28;20210;-85
2022/11/26 06:18:22;;;;;;;42.33;20.53;;;;;;;;;;4959848;29;20260;-87
2022/11/26 06:20:49;;;;;;;31.50;19.02;;;;;;;;;;4961261;28;20474;-85
2022/11/26 06:23:16;;;;;;;34.00;18.63;;;;;;;;;;4965807;29;20249;-85
2022/11/26 06:25:44;;;;;;;33.90;17.93;;;7.90;99.90;;;;;;4962365;29;20227;-85
2022/11/26 06:28:12;;;;;;;36.15;18.75;;;7.90;99.90;;;;;;4962024;29;20454;-85
2022/11/26 06:30:39;;;;;;;35.15;18.63;;;8.10;99.90;;;;;;4961959;28;20225;-85
2022/11/26 06:33:06;;;;;;;37.28;18.80;;;7.90;99.90;;;;;;4960497;29;20253;-85
2022/11/26 06:35:32;;;;;;;39.30;19.17;;;8.00;99.90;;;;;;4961377;29;20230;-85
2022/11/26 06:37:59;;;;;;;37.15;17.70;;;8.10;99.90;;;;;;4959959;29;20220;-84
2022/11/26 06:40:26;;;;;;;34.10;16.60;;;7.80;99.90;;;;;;4960747;29;20213;-85
2022/11/26 06:42:53;;;;;;;33.35;16.30;;;8.00;99.90;;;;;;4960315;28;20254;-85
2022/11/26 06:45:24;;;;;;;26.77;16.20;;;7.90;99.90;;;;;;4960875;29;20203;-84
2022/11/26 06:47:52;;;;;;;29.70;15.10;;;8.00;99.90;;;;;;4963844;29;20187;-85
2022/11/26 06:50:22;;;;;;;33.67;17.98;;;8.30;99.90;;;;;;4957548;29;20481;-85
2022/11/26 06:52:52;;;;;;;37.33;19.40;;;8.10;99.90;;;;;;4961702;28;20230;-84
2022/11/26 06:55:19;;;;;;;33.50;17.17;;;7.70;99.90;;;;;;4972455;29;20490;-85
2022/11/26 06:57:48;;;;;;;33.40;16.17;;;7.90;99.90;;;;;;4967194;28;20210;-85
2022/11/26 07:00:16;;;;;;;38.73;16.77;;;8.00;99.90;;;;;;4961624;29;20297;-85
2022/11/26 07:02:44;;;;;;;29.83;17.33;;;7.70;99.90;;;;;;4960443;28;20505;-85
2022/11/26 07:05:11;;;;;;;35.75;16.85;;;8.00;99.90;;;;;;4961157;28;20203;-85
2022/11/26 07:07:38;;;;;;;38.13;16.95;;;7.90;99.90;;;;;;4960650;29;20302;-85
2022/11/26 07:10:05;;;;;;;25.63;15.25;;;8.00;99.90;;;;;;4962476;29;20234;-85
2022/11/26 07:12:32;;;;;;;26.80;14.10;;;8.00;99.90;;;;;;4961970;28;20654;-85
2022/11/26 07:14:59;;;;;;;33.15;17.17;;;8.00;99.90;;;;;;4963511;29;20393;-85
2022/11/26 07:17:28;;;;;;;31.10;16.58;;;8.00;99.90;;;;;;4963958;29;20306;-85
2022/11/26 07:19:56;;;;;;;47.95;16.95;;;8.10;99.90;;;;;;4963482;29;20328;-86
2022/11/26 07:22:23;;;;;;;37.17;15.30;;;8.00;99.90;;;;;;4964951;28;20322;-85
2022/11/26 07:24:50;;;;;;;29.52;15.38;;;8.20;99.90;;;;;;4964653;29;20724;-86
2022/11/26 07:27:16;;;;;;;34.58;16.30;;;8.00;99.90;;;;;;4964771;29;20224;-85
2022/11/26 07:29:43;;;;;;;36.50;15.30;;;8.00;99.90;;;;;;4964150;29;20270;-85
2022/11/26 07:32:10;;;;;;;29.35;16.08;;;8.00;99.90;;;;;;4963878;28;20245;-87
2022/11/26 07:34:37;;;;;;;36.42;17.10;;;;;;;;;;4964618;29;20214;-85
2022/11/26 07:37:06;;;;;;;36.80;18.43;;;8.30;99.90;;;;;;4964482;29;20290;-85
2022/11/26 07:39:33;;;;;;;38.97;21.60;;;8.00;99.90;;;;;;4971530;29;20458;-84
2022/11/26 07:41:59;;;;;;;43.38;17.30;;;8.00;99.90;;;;;;4976536;28;20541;-84
2022/11/26 07:44:26;;;;;;;32.80;16.50;;;8.00;99.90;;;;;;4976310;29;20217;-84
2022/11/26 07:46:54;;;;;;;30.33;17.20;;;8.10;99.90;;;;;;4976974;28;20194;-84
2022/11/26 07:49:21;;;;;;;38.10;16.95;;;8.00;99.90;;;;;;4976735;29;20210;-84
2022/11/26 07:51:48;;;;;;;25.05;14.00;;;7.80;99.90;;;;;;4975441;28;20231;-84
2022/11/26 07:54:16;;;;;;;29.23;15.83;;;7.70;99.90;;;;;;4968918;29;20234;-84
2022/11/26 07:56:43;;;;;;;28.30;15.05;;;8.00;99.90;;;;;;4964264;29;20488;-85
2022/11/26 07:59:11;;;;;;;28.00;14.57;;;7.80;99.90;;;;;;4964364;29;20299;-84
2022/11/26 08:01:38;;;;;;;32.35;15.73;;;8.10;99.90;;;;;;4964876;28;20482;-84
2022/11/26 08:04:09;;;;;;;30.27;15.90;;;8.10;99.90;;;;;;4964044;28;20270;-85
2022/11/26 08:06:36;;;;;;;28.92;15.15;;;8.10;99.90;;;;;;4963984;29;20853;-86
2022/11/26 08:09:07;;;;;;;33.53;16.63;;;8.10;99.90;;;;;;4964022;28;20217;-85
2022/11/26 08:11:37;;;;;;;32.23;15.20;;;8.00;99.90;;;;;;4965070;28;21048;-86
2022/11/26 08:14:06;;;;;;;29.00;15.03;;;8.10;99.90;;;;;;4965390;29;20469;-87
2022/11/26 08:16:34;;;;;;;32.47;15.80;;;8.20;99.90;;;;;;4967968;29;20535;-85
2022/11/26 08:19:04;;;;;;;24.67;15.77;;;8.40;99.90;;;;;;4959320;29;20207;-86
2022/11/26 08:27:25;;;;;;;46.70;17.73;;;8.30;99.90;;;;;;1177564;22;20863;-85
2022/11/26 08:30:08;;;;;;;28.33;12.75;;;;;;;;;;4965611;28;20496;-86
2022/11/26 08:39:07;;;;;;;27.05;11.73;;;;;;;;;;5005242;28;20384;-85
2022/11/26 08:41:52;;;;;;;22.50;12.87;;;;;;;;;;4965135;28;20351;-86
2022/11/26 08:56:57;;;;;;;26.63;11.63;;;;;;;;;;4939217;28;20490;-86
2022/11/26 09:00:06;;;;;;;21.95;11.52;;;8.20;99.90;;;;;;4972850;28;20446;-85
2022/11/26 09:34:56;;;;;;;20.70;9.17;;;;;;;;;;4856753;29;20444;-85
2022/11/26 10:57:19;;;;;;;17.90;9.25;;;8.00;99.90;;;;;;4972361;28;20470;-90
2022/11/26 11:03:11;;;;;;;29.90;9.50;;;8.00;99.90;;;;;;5506845;22;20461;-84
2022/11/26 11:05:38;;;;;;;17.30;9.40;;;8.00;99.90;;;;;;5053186;28;20465;-86
2022/11/26 11:10:54;;;;;;;16.60;9.63;;;8.00;99.90;;;;;;5084674;22;20488;-90
2022/11/26 11:13:24;;;;;;;18.35;9.15;;;8.10;99.90;;;;;;5078130;28;20410;-89
2022/11/26 11:16:00;;;;;;;19.73;9.13;;;8.10;99.90;;;;;;5077153;28;20229;-88
2022/11/26 11:18:28;;;;;;;13.10;8.20;;;8.20;99.90;;;;;;5077791;28;20413;-91
2022/11/26 11:20:58;;;;;;;20.37;9.30;;;8.10;99.90;;;;;;5078174;28;20199;-89
2022/11/26 11:23:26;;;;;;;18.13;7.70;;;8.30;99.90;;;;;;5077148;28;20440;-89
2022/11/26 12:11:10;;;;;;;;;;;;;;;;;;;;;
2022/11/26 12:23:04;;;;;;;17.20;9.63;;;8.30;99.90;;;;;;5110973;22;20852;-88
2022/11/26 12:25:34;;;;;;;18.60;10.60;;;8.20;99.90;;;;;;5105015;28;20476;-87
2022/11/26 12:28:06;;;;;;;26.73;11.83;;;8.30;99.90;;;;;;5102902;28;20438;-88
2022/11/26 12:30:43;;;;;;;20.57;11.33;;;8.30;99.90;;;;;;5102730;28;20876;-87
2022/11/26 12:33:16;;;;;;;12.70;8.30;;;8.30;99.90;;;;;;5082387;28;20543;-88
2022/11/26 12:35:49;;;;;;;18.73;9.10;;;8.20;99.90;;;;;;5081763;28;20882;-88
2022/11/26 12:38:21;;;;;;;14.93;8.70;;;8.40;99.90;;;;;;5082987;28;20494;-88
2022/11/26 12:40:56;;;;;;;15.07;8.43;;;8.50;99.90;;;;;;5087656;28;20428;-88
2022/11/26 12:43:33;;;;;;;23.57;9.23;;;8.50;99.90;;;;;;5081192;28;20447;-88
2022/11/26 12:46:04;;;;;;;22.83;9.73;;;8.90;99.90;;;;;;5080325;28;20427;-88
2022/11/26 12:48:41;;;;;;;19.80;9.97;;;8.60;99.90;;;;;;5080357;28;20429;-88
2022/11/26 12:51:20;;;;;;;18.70;9.33;;;8.40;99.90;;;;;;5083451;28;20416;-89
2022/11/26 12:53:52;;;;;;;24.90;10.23;;;8.60;99.90;;;;;;5083130;28;20536;-88
2022/11/26 12:56:23;;;;;;;14.73;9.13;;;8.00;99.90;;;;;;5081195;28;20468;-88
2022/11/26 12:58:59;;;;;;;21.63;9.63;;;8.30;99.90;;;;;;5082229;28;20435;-88
2022/11/26 13:01:27;;;;;;;14.90;7.97;;;8.10;99.90;;;;;;5084438;28;20468;-88
2022/11/26 13:03:54;;;;;;;14.07;8.07;;;8.20;99.90;;;;;;5080674;28;20539;-88
2022/11/26 13:06:37;;;;;;;16.10;6.50;;;8.30;99.90;;;;;;5086405;28;20535;-89
2022/11/26 13:09:14;;;;;;;19.63;7.67;;;8.30;99.90;;;;;;5086590;28;20906;-88
2022/11/26 13:11:52;;;;;;;15.63;6.95;;;8.80;99.90;;;;;;5099389;28;20471;-88
2022/11/26 13:14:26;;;;;;;14.40;6.70;;;8.40;99.90;;;;;;5101060;28;20190;-87
2022/11/26 13:16:57;;;;;;;11.60;7.10;;;8.50;99.90;;;;;;5099613;28;20469;-87
2022/11/26 13:19:32;;;;;;;18.67;7.97;;;8.40;99.90;;;;;;5103124;28;20806;-87
2022/11/26 13:22:22;;;;;;;13.13;7.30;;;8.40;99.90;;;;;;5102681;28;20542;-87
2022/11/26 13:25:03;;;;;;;12.27;6.15;;;8.80;99.90;;;;;;5118298;28;20460;-87
2022/11/26 13:27:45;;;;;;;16.30;7.13;;;8.30;99.90;;;;;;5120035;28;20233;-90
2022/11/26 13:30:20;;;;;;;11.90;5.87;;;8.30;99.90;;;;;;5119950;28;20455;-88
2022/11/26 13:33:23;;;;;;;15.33;5.73;;;8.60;99.90;;;;;;5119415;28;20452;-88
2022/11/26 13:36:20;;;;;;;10.98;6.07;;;8.10;99.90;;;;;;5088120;28;20442;-91
2022/11/26 13:39:03;;;;;;;17.05;7.20;;;8.00;99.90;;;;;;5120053;28;20189;-86
2022/11/26 13:41:50;;;;;;;9.40;6.67;;;8.10;99.90;;;;;;5110507;28;20225;-87
2022/11/26 13:45:03;;;;;;;10.70;6.70;;;8.30;99.90;;;;;;5108857;28;20448;-85
2022/11/26 13:47:34;;;;;;;10.07;6.83;;;8.50;99.90;;;;;;5103975;28;20446;-87
2022/11/26 13:50:06;;;;;;;13.47;5.63;;;8.60;99.90;;;;;;5100818;28;20888;-87
2022/11/26 13:52:38;;;;;;;18.98;6.93;;;8.20;99.90;;;;;;5100663;28;20468;-87
2022/11/26 13:55:11;;;;;;;16.77;7.20;;;8.20;99.90;;;;;;5100349;28;20229;-87
2022/11/26 13:57:42;;;;;;;14.60;7.23;;;8.30;99.90;;;;;;5100197;28;20525;-85
2022/11/26 14:00:23;;;;;;;14.60;7.47;;;8.40;99.90;;;;;;5098791;28;20460;-86
2022/11/26 14:02:50;;;;;;;11.20;5.20;;;8.00;99.90;;;;;;5098912;28;20524;-87
2022/11/26 14:05:17;;;;;;;13.90;7.67;;;8.30;99.90;;;;;;5100836;28;20444;-87
2022/11/26 14:07:45;;;;;;;13.07;6.23;;;8.40;99.90;;;;;;5101210;28;20476;-87
2022/11/26 14:10:41;;;;;;;12.88;6.90;;;8.30;99.90;;;;;;5099854;28;20532;-87
2022/11/26 14:13:15;;;;;;;18.13;6.33;;;8.50;99.90;;;;;;5098766;28;20233;-87
2022/11/26 14:16:01;;;;;;;17.40;8.60;;;8.30;99.90;;;;;;5099296;28;20409;-87
2022/11/26 14:18:55;;;;;;;12.07;6.53;;;8.50;99.90;;;;;;5099992;28;20642;-86
2022/11/26 14:21:23;;;;;;;17.00;6.27;;;8.30;99.90;;;;;;5103713;28;20479;-86
2022/11/26 14:23:51;;;;;;;21.47;10.20;;;8.20;99.90;;;;;;5109440;28;20440;-87
2022/11/26 14:26:22;;;;;;;15.27;8.03;;;8.50;99.90;;;;;;5108053;28;20444;-86
2022/11/26 14:28:48;;;;;;;14.13;7.23;;;8.00;99.90;;;;;;5107703;28;20432;-87
2022/11/26 14:31:22;;;;;;;20.13;8.03;;;8.10;99.90;;;;;;5109629;28;20524;-86
2022/11/26 14:33:51;;;;;;;20.63;8.70;;;8.00;99.90;;;;;;5107483;28;20436;-86
2022/11/26 14:36:20;;;;;;;13.03;7.90;;;8.00;99.90;;;;;;5108816;28;20444;-87
2022/11/26 14:39:02;;;;;;;16.80;9.60;;;8.20;99.90;;;;;;5108352;28;20479;-86
2022/11/26 14:41:34;;;;;;;21.50;9.80;;;8.00;99.90;;;;;;5108206;28;20495;-87
2022/11/26 14:44:06;;;;;;;17.03;10.00;;;8.30;99.90;;;;;;5117633;28;20424;-86
2022/11/26 14:46:35;;;;;;;16.63;8.97;;;8.00;99.90;;;;;;5117133;28;20454;-88
2022/11/26 14:49:07;;;;;;;19.50;9.10;;;8.00;99.90;;;;;;5112198;28;20474;-87
2022/11/26 14:51:34;;;;;;;15.00;9.10;;;8.00;99.90;;;;;;5107530;28;20489;-88
2022/11/26 14:54:03;;;;;;;22.50;7.67;;;;;;;;;;5106747;28;20429;-89
2022/11/26 14:56:30;;;;;;;13.97;8.87;;;;;;;;;;5114399;28;20448;-89
2022/11/26 14:59:01;;;;;;;27.93;11.20;;;8.10;99.90;;;;;;5114853;28;20420;-88
2022/11/26 15:01:31;;;;;;;16.53;8.53;;;8.10;99.90;;;;;;5114854;28;20463;-88
2022/11/26 15:04:01;;;;;;;17.73;9.90;;;8.00;99.90;;;;;;5116480;28;20531;-89
2022/11/26 15:06:37;;;;;;;22.77;10.60;;;8.00;99.90;;;;;;5117761;28;20424;-90
2022/11/26 15:09:05;;;;;;;33.80;10.47;;;;;;;;;;5118477;28;20428;-89
2022/11/26 15:11:33;;;;;;;19.90;10.33;;;;;;;;;;5116659;28;20493;-89
2022/11/26 15:14:00;;;;;;;23.33;12.60;;;7.90;99.90;;;;;;5112785;28;20471;-88
2022/11/26 15:16:30;;;;;;;28.27;13.90;;;8.00;99.90;;;;;;5108403;28;20468;-87
2022/11/26 15:19:00;;;;;;;27.80;12.13;;;8.10;99.90;;;;;;5107943;28;20488;-87
2022/11/26 15:21:28;;;;;;;32.20;12.50;;;8.20;99.90;;;;;;5108604;28;20514;-88
2022/11/26 15:23:58;;;;;;;30.52;12.90;;;7.50;99.90;;;;;;5109365;28;20455;-88
2022/11/26 15:26:32;;;;;;;18.93;8.70;;;7.90;99.90;;;;;;5105566;28;20186;-87
2022/11/26 15:29:00;;;;;;;20.00;10.37;;;7.90;99.90;;;;;;5105039;28;20466;-88
2022/11/26 15:34:31;;;;;;;25.80;11.90;;;7.90;99.90;;;;;;5101295;28;20520;-89
2022/11/26 15:37:02;;;;;;;23.27;12.60;;;;;;;;;;5104127;28;20984;-88
2022/11/26 15:39:32;;;;;;;24.40;11.30;;;7.90;99.90;;;;;;5103622;28;20432;-88
2022/11/26 15:42:04;;;;;;;22.83;10.57;;;8.00;99.90;;;;;;5104003;28;20810;-88
2022/11/26 15:44:35;;;;;;;23.20;9.83;;;7.90;99.90;;;;;;5104340;28;20519;-88
2022/11/26 15:47:04;;;;;;;24.93;10.80;;;;;;;;;;5116298;28;20462;-88
2022/11/26 15:49:36;;;;;;;24.20;11.10;;;7.90;99.90;;;;;;5112331;28;20418;-88
2022/11/26 15:52:06;;;;;;;21.98;9.60;;;7.90;99.90;;;;;;5108187;28;20232;-88
2022/11/26 15:54:36;;;;;;;39.27;12.03;;;7.80;99.90;;;;;;5105952;28;20289;-88
2022/11/26 15:57:08;;;;;;;17.00;9.07;;;7.80;99.90;;;;;;5103758;28;20490;-88
2022/11/26 16:08:29;;;;;;;26.60;10.27;;;7.80;99.90;;;;;;5106995;28;20437;-88
2022/11/26 16:11:01;;;;;;;33.43;15.40;;;;;;;;;;5104279;28;20483;-88
2022/11/26 16:22:02;;;;;;;23.30;9.40;;;7.80;99.90;;;;;;5102611;28;20225;-87
2022/11/26 16:24:34;;;;;;;20.65;8.27;;;7.80;99.90;;;;;;5105545;28;20717;-88
2022/11/26 16:27:05;;;;;;;16.10;9.52;;;7.90;99.90;;;;;;5105578;28;20197;-88
2022/11/26 16:29:34;;;;;;;12.03;8.60;;;7.90;99.90;;;;;;5107275;28;20190;-88
2022/11/26 16:32:03;;;;;;;13.30;7.60;;;;;;;;;;5106236;28;20464;-88
2022/11/26 16:34:30;;;;;;;18.93;9.27;;;;;;;;;;5102080;28;20440;-89
2022/11/26 16:37:16;;;;;;;24.30;9.47;;;7.90;99.90;;;;;;5106383;28;20471;-87
2022/11/26 16:39:45;;;;;;;24.73;10.27;;;;;;;;;;5103550;28;20440;-88
2022/11/26 16:42:14;;;;;;;21.03;11.30;;;;;;;;;;5102446;28;20229;-88
2022/11/26 16:44:42;;;;;;;26.87;11.90;;;;;;;;;;5103207;28;20466;-89
2022/11/26 16:47:15;;;;;;;21.03;9.43;;;7.80;99.90;;;;;;5101649;28;20526;-88
2022/11/26 16:49:42;;;;;;;17.50;10.03;;;;;;;;;;5102952;28;20420;-88
2022/11/26 16:52:15;;;;;;;35.77;10.73;;;7.80;99.90;;;;;;5102953;28;20472;-88
2022/11/26 16:54:46;;;;;;;20.70;11.40;;;;;;;;;;5102360;28;20428;-88
2022/11/26 16:57:18;;;;;;;21.37;10.40;;;7.90;99.90;;;;;;5102191;28;20472;-88
2022/11/26 16:59:52;;;;;;;15.87;9.00;;;;;;;;;;5102913;28;20459;-89
2022/11/26 17:05:07;;;;;;;21.93;10.53;;;;;;;;;;5103095;28;20432;-89
2022/11/26 17:08:16;;;;;;;16.00;9.20;;;7.90;99.90;;;;;;5106591;28;20444;-88
2022/11/26 17:10:47;;;;;;;19.00;8.00;;;8.00;99.90;;;;;;5103413;28;20866;-89
2022/11/26 17:13:16;;;;;;;16.87;10.60;;;8.00;99.90;;;;;;5102785;28;20429;-88
2022/11/26 17:15:43;;;;;;;21.77;9.33;;;8.10;99.90;;;;;;5103792;28;20476;-89
2022/11/26 17:18:18;;;;;;;16.63;9.07;;;8.00;99.90;;;;;;5101575;28;20507;-89
2022/11/26 17:20:45;;;;;;;18.43;9.60;;;;;;;;;;5104172;28;20523;-87
2022/11/26 17:23:12;;;;;;;17.50;9.87;;;7.80;99.90;;;;;;5102140;28;20479;-88
2022/11/26 17:25:39;;;;;;;21.80;10.93;;;8.30;99.90;;;;;;5103565;28;20502;-88
2022/11/26 17:28:10;;;;;;;13.20;8.73;;;7.90;99.90;;;;;;5103107;28;21040;-89
2022/11/26 17:30:37;;;;;;;14.20;8.48;;;8.00;99.90;;;;;;5102913;28;21001;-88
2022/11/26 17:33:04;;;;;;;21.97;8.70;;;7.70;99.90;;;;;;5107383;28;20237;-89
2022/11/26 17:35:32;;;;;;;18.63;8.70;;;7.80;99.90;;;;;;5108606;28;20488;-87
2022/11/26 17:37:59;;;;;;;15.93;9.13;;;7.80;99.90;;;;;;5110001;28;20485;-87
2022/11/26 17:40:27;;;;;;;16.87;9.20;;;;;;;;;;5109656;28;20470;-87
2022/11/26 17:42:55;;;;;;;16.90;8.53;;;7.70;99.90;;;;;;5107832;28;20521;-87
2022/11/26 17:45:24;;;;;;;10.73;8.20;;;8.00;99.90;;;;;;5112273;28;20431;-87
2022/11/26 17:47:51;;;;;;;18.13;9.57;;;8.00;99.90;;;;;;5105302;28;20423;-87
2022/11/26 17:50:20;;;;;;;20.77;9.80;;;8.30;99.90;;;;;;5106618;28;20482;-89
2022/11/26 17:52:48;;;;;;;15.23;9.10;;;;;;;;;;5104976;28;20519;-87
2022/11/26 17:55:16;;;;;;;17.30;11.47;;;7.70;99.90;;;;;;5100967;28;20456;-88
2022/11/26 17:57:43;;;;;;;18.07;9.23;;;8.20;99.90;;;;;;5108978;28;20484;-88
2022/11/26 18:00:14;;;;;;;19.90;11.10;;;7.90;99.90;;;;;;5100948;28;20455;-88
2022/11/26 18:02:44;;;;;;;28.00;11.13;;;8.10;99.90;;;;;;5099629;28;20502;-88
2022/11/26 18:05:12;;;;;;;20.87;11.37;;;7.60;99.90;;;;;;5107336;28;20452;-89
2022/11/26 18:07:40;;;;;;;16.17;9.83;;;;;;;;;;5109868;28;20520;-89